Time;durP1;ratioP1;P1;durP2;ratioP2;P2;SDS_P1;SDS_P2;PMS_P1;PMS_P2;Temp;Humidity;BMP_temperature;BMP_pressure;BME280_temperature;BME280_humidity;BME280_pressure;Samples;Min_cycle;Max_cycle;Signal;HPM_P1;HPM_P2
2023/10/14 00:02:11;;;;;;;0.88;0.85;;;;;;;11.38;83.96;95028.47;5050630;28;20272;-74
2023/10/14 00:04:38;;;;;;;0.10;0.10;;;;;;;11.25;84.56;95021.31;5050138;28;20234;-75
2023/10/14 00:07:08;;;;;;;0.73;0.73;;;;;;;11.25;84.11;95024.03;5050251;28;20246;-75
2023/10/14 00:09:42;;;;;;;0.25;0.25;;;;;;;11.24;84.41;95019.72;5050259;28;20235;-75
2023/10/14 00:12:13;;;;;;;0.40;0.40;;;;;;;11.20;84.41;95018.78;5050164;28;20210;-75
2023/10/14 00:14:42;;;;;;;0.20;0.20;;;;;;;11.14;84.33;95020.06;5050821;28;20571;-75
2023/10/14 00:17:14;;;;;;;0.20;0.20;;;;;;;11.23;83.81;95012.69;5050345;28;20694;-74
2023/10/14 00:29:49;;;;;;;1.88;1.25;;;;;;;11.28;83.07;95009.81;5050517;28;20730;-74
2023/10/14 00:32:15;;;;;;;2.20;1.10;;;;;;;11.21;83.13;95009.50;5050427;28;20234;-74
2023/10/14 00:34:42;;;;;;;2.60;1.20;;;;;;;11.20;83.13;95001.72;5050255;28;20230;-74
2023/10/14 00:37:09;;;;;;;0.10;0.10;;;;;;;11.15;83.06;95005.38;5050058;28;20215;-74
2023/10/14 00:39:36;;;;;;;0.20;0.20;;;;;;;11.18;83.29;94996.63;5050143;28;20261;-75
2023/10/14 00:42:04;;;;;;;0.20;0.20;;;;;;;11.23;83.59;95012.69;5050025;28;20212;-74
2023/10/14 00:44:33;;;;;;;0.20;0.20;;;;;;;11.11;83.75;95009.84;5059395;28;20674;-74
2023/10/14 00:47:07;;;;;;;0.30;0.30;;;;;;;11.19;83.49;95006.34;5049933;28;20219;-75
2023/10/14 00:49:34;;;;;;;0.20;0.20;;;;;;;11.13;83.65;95007.63;5049620;28;20207;-75
2023/10/14 00:52:07;;;;;;;0.30;0.30;;;;;;;11.05;84.38;95000.31;5049859;28;20211;-74
2023/10/14 00:54:51;;;;;;;0.50;0.50;;;;;;;10.94;85.29;95004.44;5063427;28;21004;-74
2023/10/14 00:57:21;;;;;;;0.55;0.55;;;;;;;10.95;85.10;94995.19;5069855;28;20313;-75
2023/10/14 00:59:49;;;;;;;0.10;0.10;;;;;;;10.97;85.33;94987.53;5069925;28;20214;-74
2023/10/14 01:02:26;;;;;;;1.08;0.82;;;;;;;10.87;85.81;94991.38;5069726;28;20218;-74
2023/10/14 01:04:54;;;;;;;0.20;0.20;;;;;;;10.84;86.26;94988.50;5069707;28;20203;-74
2023/10/14 01:07:21;;;;;;;0.40;0.40;;;;;;;10.83;86.06;94986.91;5070251;28;20650;-74
2023/10/14 01:09:52;;;;;;;2.28;1.02;;;;;;;10.86;86.20;94986.28;5069651;28;20214;-75
2023/10/14 01:12:25;;;;;;;2.30;1.17;;;;;;;10.78;86.06;94976.25;5069992;28;20261;-74
2023/10/14 01:14:53;;;;;;;3.38;1.35;;;;;;;10.82;85.79;94986.13;5069401;28;20210;-75
2023/10/14 01:17:27;;;;;;;1.85;1.23;;;;;;;10.73;86.26;94976.41;5068151;28;20235;-75
2023/10/14 01:19:55;;;;;;;3.88;1.27;;;;;;;10.79;86.43;94975.16;5070081;28;20577;-75
2023/10/14 01:22:23;;;;;;;1.20;0.95;;;;;;;10.84;86.21;94978.47;5068348;28;20290;-75
2023/10/14 01:24:52;;;;;;;0.30;0.30;;;;;;;10.85;85.80;94973.84;5049936;28;20200;-75
2023/10/14 01:27:21;;;;;;;0.20;0.20;;;;;;;10.83;85.89;94970.66;5049958;28;20215;-76
2023/10/14 01:29:51;;;;;;;0.20;0.15;;;;;;;10.78;86.13;94970.84;5059135;28;20253;-76
2023/10/14 01:32:42;;;;;;;0.20;0.20;;;;;;;10.72;86.03;94972.09;5069718;28;20207;-75
2023/10/14 01:37:52;;;;;;;1.25;1.15;;;;;;;10.63;86.60;94966.69;5038412;28;20199;-77
2023/10/14 01:40:35;;;;;;;3.05;1.27;;;;;;;10.58;87.31;94964.94;5053329;28;20768;-75
2023/10/14 01:43:06;;;;;;;3.30;1.70;;;;;;;10.62;87.10;94974.03;5061479;28;20652;-75
2023/10/14 01:45:39;;;;;;;2.38;1.45;;;;;;;10.67;86.97;94963.00;5053620;28;20200;-75
2023/10/14 01:48:12;;;;;;;3.38;1.40;;;;;;;10.72;86.25;94962.06;5053436;28;20236;-79
2023/10/14 01:50:44;;;;;;;2.03;1.20;;;;;;;10.74;86.21;94975.28;5054110;28;20579;-78
2023/10/14 01:53:17;;;;;;;3.15;1.35;;;;;;;10.76;86.38;94973.88;5052572;28;20214;-78
2023/10/14 01:55:47;;;;;;;5.00;1.63;;;;;;;10.68;86.59;94959.19;5054325;28;20273;-78
2023/10/14 01:58:22;;;;;;;2.05;1.15;;;;;;;10.73;86.14;94966.38;5053481;28;20207;-78
2023/10/14 02:00:56;;;;;;;1.80;1.25;;;;;;;10.62;86.57;94968.59;5054273;28;20248;-77
2023/10/14 02:03:24;;;;;;;1.65;1.30;;;;;;;10.57;86.56;94966.03;5054036;28;20203;-78
2023/10/14 02:05:52;;;;;;;1.23;1.08;;;;;;;10.52;86.74;94966.19;5053731;28;20207;-77
2023/10/14 02:08:22;;;;;;;0.40;0.40;;;;;;;10.57;86.18;94963.34;5053928;28;20238;-77
2023/10/14 02:10:50;;;;;;;0.30;0.30;;;;;;;10.55;86.08;94965.56;5053294;28;20261;-76
2023/10/14 02:13:18;;;;;;;0.20;0.20;;;;;;;10.48;86.65;94961.75;5052451;28;20258;-76
2023/10/14 02:15:47;;;;;;;0.60;0.60;;;;;;;10.37;87.17;94958.56;5053075;28;20505;-75
2023/10/14 02:18:20;;;;;;;0.25;0.25;;;;;;;10.40;87.14;94949.78;5060712;28;20342;-75
2023/10/14 02:20:57;;;;;;;0.35;0.35;;;;;;;10.33;87.80;94958.41;5072846;28;20237;-75
2023/10/14 02:23:30;;;;;;;0.20;0.20;;;;;;;10.40;88.17;94957.91;5072569;28;20306;-76
2023/10/14 02:25:58;;;;;;;1.83;1.23;;;;;;;10.36;88.29;94953.47;5072441;28;20207;-75
2023/10/14 02:28:27;;;;;;;0.20;0.20;;;;;;;10.35;88.35;94949.97;5073014;28;20546;-75
2023/10/14 02:31:00;;;;;;;2.63;1.10;;;;;;;10.37;87.81;94947.75;5072320;28;20280;-75
2023/10/14 02:33:28;;;;;;;0.15;0.15;;;;;;;10.34;87.47;94948.38;5072608;28;20540;-75
2023/10/14 02:35:59;;;;;;;0.10;0.10;;;;;;;10.31;87.59;94943.56;5058501;28;20231;-75
2023/10/14 02:38:30;;;;;;;0.20;0.20;;;;;;;10.25;87.64;94944.88;5047111;28;20207;-75
2023/10/14 02:40:58;;;;;;;1.10;0.40;;;;;;;10.24;87.64;94948.69;5052775;28;20199;-76
2023/10/14 02:43:29;;;;;;;0.10;0.10;;;;;;;10.29;87.77;94946.59;5063364;28;20211;-76
2023/10/14 02:46:00;;;;;;;0.28;0.22;;;;;;;10.22;87.66;94950.91;5072436;28;20222;-76
2023/10/14 02:48:49;;;;;;;1.10;0.85;;;;;;;10.13;88.04;94947.34;5069104;28;20276;-75
2023/10/14 02:51:17;;;;;;;0.32;0.32;;;;;;;10.19;87.83;94943.41;5051731;28;20314;-75
2023/10/14 02:53:46;;;;;;;0.85;0.85;;;;;;;10.19;87.87;94946.13;5037258;28;20211;-75
2023/10/14 02:56:21;;;;;;;0.32;0.32;;;;;;;10.07;87.93;94946.72;5051925;28;20261;-75
2023/10/14 02:58:48;;;;;;;0.28;0.28;;;;;;;10.15;87.89;94943.22;5052374;28;20257;-75
2023/10/14 03:01:15;;;;;;;0.57;0.57;;;;;;;10.22;87.24;94940.09;5064979;28;20203;-75
2023/10/14 03:03:42;;;;;;;0.28;0.28;;;;;;;10.17;86.96;94937.47;5052417;28;20576;-75
2023/10/14 03:06:14;;;;;;;0.20;0.20;;;;;;;10.12;87.23;94937.63;5052150;28;20736;-76
2023/10/14 03:08:57;;;;;;;1.58;0.85;;;;;;;10.05;87.26;94940.03;5052371;28;20211;-76
2023/10/14 03:11:26;;;;;;;0.20;0.20;;;;;;;9.97;87.76;94941.63;5069747;28;20222;-75
2023/10/14 03:13:53;;;;;;;0.20;0.20;;;;;;;9.96;87.92;94943.53;5071867;28;20290;-75
2023/10/14 03:16:20;;;;;;;0.30;0.30;;;;;;;9.90;87.64;94944.78;5071428;28;20218;-75
2023/10/14 03:18:46;;;;;;;0.20;0.20;;;;;;;9.97;87.54;94947.03;5071619;28;20241;-76
2023/10/14 03:21:22;;;;;;;2.20;1.00;;;;;;;9.96;87.78;94948.94;5071217;28;20578;-75
2023/10/14 03:23:49;;;;;;;1.05;0.75;;;;;;;9.98;87.78;94952.09;5071827;28;20209;-75
2023/10/14 03:26:20;;;;;;;1.10;0.70;;;;;;;9.96;87.59;94943.53;5071174;28;20690;-75
2023/10/14 03:28:50;;;;;;;3.42;1.08;;;;;;;9.99;87.64;94942.06;5071620;28;20207;-75
2023/10/14 03:31:19;;;;;;;1.67;1.08;;;;;;;9.98;87.41;94951.28;5062766;28;20215;-75
2023/10/14 03:33:46;;;;;;;1.83;1.13;;;;;;;9.95;87.46;94941.13;5051334;28;20284;-75
2023/10/14 03:36:16;;;;;;;0.93;0.82;;;;;;;9.87;87.91;94950.00;5041739;28;20607;-75
2023/10/14 03:38:46;;;;;;;0.20;0.20;;;;;;;9.82;87.58;94942.84;5048509;28;20215;-75
2023/10/14 03:41:18;;;;;;;0.20;0.20;;;;;;;9.78;88.09;94946.50;5051403;28;20198;-75
2023/10/14 03:43:49;;;;;;;0.20;0.20;;;;;;;9.79;88.19;94942.69;5064488;28;20204;-75
2023/10/14 03:46:23;;;;;;;1.88;1.10;;;;;;;9.80;88.00;94945.06;5050995;28;20204;-75
2023/10/14 03:48:54;;;;;;;11.48;4.60;;;;;;;9.76;88.11;94954.13;5070589;28;20256;-75
2023/10/14 03:51:24;;;;;;;5.35;2.33;;;;;;;9.79;88.41;94938.06;5070219;28;20219;-75
2023/10/14 03:53:52;;;;;;;2.63;1.58;;;;;;;9.70;88.40;94942.66;5038498;28;20207;-73
2023/10/14 03:56:25;;;;;;;3.50;2.38;;;;;;;9.70;88.88;94944.56;5064213;28;20234;-73
2023/10/14 03:58:55;;;;;;;4.47;2.17;;;;;;;9.77;88.69;94934.88;5070742;28;20678;-72
2023/10/14 04:01:28;;;;;;;0.40;0.40;;;;;;;9.84;88.34;94931.72;5059875;28;20204;-73
2023/10/14 04:03:55;;;;;;;0.20;0.20;;;;;;;9.81;88.13;94927.72;5049184;28;20214;-74
2023/10/14 04:06:22;;;;;;;0.20;0.20;;;;;;;9.75;88.03;94931.69;5049748;28;20199;-74
2023/10/14 04:08:50;;;;;;;0.17;0.17;;;;;;;9.67;88.28;94929.75;5049503;28;20234;-73
2023/10/14 04:11:25;;;;;;;2.15;1.25;;;;;;;9.64;88.55;94930.38;5049428;28;20242;-73
2023/10/14 04:13:58;;;;;;;2.25;0.80;;;;;;;9.67;88.86;94926.25;5049703;28;20215;-73
2023/10/14 04:16:38;;;;;;;2.45;1.40;;;;;;;9.69;88.69;94916.72;5048796;28;20211;-74
2023/10/14 04:19:13;;;;;;;4.72;1.10;;;;;;;9.65;88.94;94921.16;5049308;28;20243;-73
2023/10/14 04:21:45;;;;;;;3.30;1.40;;;;;;;9.69;89.13;94922.13;5048975;28;20207;-74
2023/10/14 04:24:18;;;;;;;1.02;0.90;;;;;;;9.67;89.10;94923.56;5066142;28;20602;-74
2023/10/14 04:26:48;;;;;;;1.48;0.85;;;;;;;9.68;88.89;94912.41;5070007;28;20210;-73
2023/10/14 04:29:34;;;;;;;0.20;0.20;;;;;;;9.61;89.19;94925.59;5070146;28;20639;-73
2023/10/14 04:32:13;;;;;;;0.20;0.20;;;;;;;9.75;88.99;94923.56;5070250;28;20261;-74
2023/10/14 04:34:42;;;;;;;0.88;0.88;;;;;;;9.75;88.44;94923.56;5070424;28;20663;-74
2023/10/14 04:37:09;;;;;;;0.65;0.65;;;;;;;9.77;88.29;94918.63;5038903;28;20299;-74
2023/10/14 04:39:42;;;;;;;0.70;0.30;;;;;;;9.80;88.52;94936.16;5049900;28;20591;-73
2023/10/14 04:44:59;;;;;;;0.20;0.20;;;;;;;9.84;89.03;94921.66;5034197;28;20215;-75
2023/10/14 04:47:35;;;;;;;0.40;0.40;;;;;;;9.92;88.94;94926.31;5049706;28;20230;-74
2023/10/14 04:50:10;;;;;;;0.20;0.20;;;;;;;9.98;89.38;94930.44;5049785;28;20313;-75
2023/10/14 04:52:38;;;;;;;0.15;0.15;;;;;;;10.10;89.16;94931.75;5060353;28;20580;-73
2023/10/14 04:55:20;;;;;;;0.30;0.30;;;;;;;10.20;88.73;94926.06;5069387;28;20234;-73
2023/10/14 04:58:05;;;;;;;0.10;0.10;;;;;;;10.30;87.76;94939.28;5070053;28;20320;-74
2023/10/14 05:00:38;;;;;;;0.50;0.50;;;;;;;10.69;87.45;94922.84;5069759;28;20229;-73
2023/10/14 05:03:09;;;;;;;0.20;0.20;;;;;;;11.57;86.08;94926.94;5069532;28;20203;-73
2023/10/14 05:05:38;;;;;;;0.10;0.10;;;;;;;12.56;81.17;94911.00;5069941;28;20566;-74
2023/10/14 05:08:07;;;;;;;0.10;0.10;;;;;;;13.53;77.86;94912.06;5069173;28;20675;-73
2023/10/14 05:10:34;;;;;;;0.50;0.50;;;;;;;14.57;73.68;94914.16;5069901;28;20207;-73
2023/10/14 05:13:01;;;;;;;0.20;0.20;;;;;;;15.39;68.39;94907.41;5071780;28;20337;-75
2023/10/14 05:15:28;;;;;;;0.20;0.20;;;;;;;16.02;65.88;94913.66;5073205;28;20219;-74
2023/10/14 05:18:00;;;;;;;1.23;0.75;;;;;;;16.43;63.81;94906.78;5073097;28;20251;-74
2023/10/14 05:20:48;;;;;;;0.45;0.35;;;;;;;16.87;63.14;94904.63;5073533;28;20548;-74
2023/10/14 05:23:19;;;;;;;0.35;0.28;;;;;;;17.41;60.60;94901.72;5073076;28;20217;-74
2023/10/14 05:25:48;;;;;;;5.18;1.40;;;;;;;17.65;59.57;94900.59;5073407;28;20207;-74
2023/10/14 05:28:16;;;;;;;0.80;0.80;;;;;;;18.37;57.11;94905.25;5073198;28;20238;-74
2023/10/14 05:30:46;;;;;;;0.30;0.30;;;;;;;18.78;54.69;94900.75;5073295;28;20299;-74
2023/10/14 05:33:14;;;;;;;0.30;0.30;;;;;;;18.93;54.52;94902.50;5072813;28;20291;-75
2023/10/14 05:35:43;;;;;;;0.68;0.68;;;;;;;18.96;54.28;94918.25;5062538;28;20283;-74
2023/10/14 05:38:14;;;;;;;0.50;0.50;;;;;;;18.64;55.36;94911.53;5044977;28;20204;-74
2023/10/14 05:40:41;;;;;;;0.20;0.20;;;;;;;18.90;53.59;94919.72;5072865;28;20238;-74
2023/10/14 05:43:09;;;;;;;0.20;0.20;;;;;;;19.53;52.09;94921.66;5072731;28;20215;-74
2023/10/14 05:45:36;;;;;;;1.08;0.88;;;;;;;20.01;51.74;94916.97;5052811;28;20219;-73
2023/10/14 05:48:07;;;;;;;0.57;0.57;;;;;;;20.16;51.45;94917.88;5053263;28;20660;-74
2023/10/14 05:50:35;;;;;;;0.63;0.45;;;;;;;19.81;51.91;94919.19;5040748;28;20204;-76
2023/10/14 05:53:07;;;;;;;0.30;0.30;;;;;;;20.12;50.99;94911.56;5066919;28;20766;-74
2023/10/14 05:55:34;;;;;;;0.43;0.43;;;;;;;20.39;49.89;94926.72;5064961;28;20208;-74
2023/10/14 05:58:01;;;;;;;0.65;0.65;;;;;;;20.86;48.66;94922.28;5053275;28;20220;-74
2023/10/14 06:00:30;;;;;;;0.22;0.22;;;;;;;20.81;48.52;94930.91;5052625;28;20226;-73
2023/10/14 06:02:58;;;;;;;3.53;1.85;;;;;;;21.28;47.31;94919.75;5066248;28;20213;-74
2023/10/14 06:05:26;;;;;;;1.25;1.15;;;;;;;20.05;50.05;94922.50;5045631;28;20225;-73
2023/10/14 06:08:00;;;;;;;0.38;0.32;;;;;;;20.60;48.56;94925.28;5036635;28;20204;-73
2023/10/14 06:10:36;;;;;;;0.50;0.50;;;;;;;20.55;49.23;94927.22;5043753;28;20235;-73
2023/10/14 06:13:05;;;;;;;0.45;0.45;;;;;;;20.68;48.89;94927.69;5054832;28;20215;-74
2023/10/14 06:15:32;;;;;;;2.38;0.47;;;;;;;20.82;48.84;94922.25;5052556;28;20629;-73
2023/10/14 06:18:00;;;;;;;4.88;1.30;;;;;;;21.25;47.71;94920.50;5057523;28;20733;-73
2023/10/14 06:20:26;;;;;;;0.85;0.85;;;;;;;21.44;47.20;94918.63;5070185;28;20234;-74
2023/10/14 06:22:59;;;;;;;0.35;0.35;;;;;;;21.32;47.83;94910.72;5056458;28;20210;-74
2023/10/14 06:25:29;;;;;;;0.60;0.60;;;;;;;22.14;45.71;94911.66;5050281;28;20243;-73
2023/10/14 06:27:57;;;;;;;0.10;0.10;;;;;;;20.91;48.47;94924.66;5052316;28;20331;-74
2023/10/14 06:30:24;;;;;;;0.95;0.45;;;;;;;21.51;46.72;94916.66;5052408;28;20265;-74
2023/10/14 06:32:58;;;;;;;0.82;0.82;;;;;;;21.76;46.63;94908.41;5067418;28;20570;-75
2023/10/14 06:35:26;;;;;;;0.60;0.60;;;;;;;21.68;46.63;94920.63;5049101;28;20199;-73
2023/10/14 06:37:58;;;;;;;1.08;0.52;;;;;;;21.21;47.29;94908.69;5043179;28;20204;-72
2023/10/14 06:40:32;;;;;;;2.65;1.70;;;;;;;20.78;47.80;94920.66;5063149;28;20227;-77
2023/10/14 06:43:06;;;;;;;2.22;1.52;;;;;;;20.04;50.11;94915.44;5049193;28;20209;-77
2023/10/14 06:45:34;;;;;;;3.25;1.80;;;;;;;19.92;50.68;94923.97;5051815;28;20533;-77
2023/10/14 06:48:03;;;;;;;0.80;0.65;;;;;;;19.51;51.45;94921.25;5055010;28;20294;-78
2023/10/14 06:50:31;;;;;;;0.52;0.32;;;;;;;18.60;53.66;94918.91;5050401;28;20203;-77
2023/10/14 06:53:07;;;;;;;4.95;1.20;;;;;;;18.27;55.45;94909.44;5050369;28;20224;-77
2023/10/14 06:55:39;;;;;;;2.80;1.60;;;;;;;17.85;55.97;94917.78;5039998;28;20199;-78
2023/10/14 06:58:08;;;;;;;3.42;1.50;;;;;;;18.02;56.35;94924.72;5048819;28;20226;-76
2023/10/14 07:00:39;;;;;;;0.60;0.60;;;;;;;18.11;56.64;94917.03;5047613;28;20203;-75
2023/10/14 07:03:12;;;;;;;1.88;1.40;;;;;;;18.43;55.94;94918.28;5056006;28;20647;-76
2023/10/14 07:05:46;;;;;;;2.45;1.70;;;;;;;18.58;55.48;94918.50;5055793;28;20204;-75
2023/10/14 07:08:13;;;;;;;3.65;1.67;;;;;;;17.93;57.40;94915.94;5068404;28;20207;-76
2023/10/14 07:10:41;;;;;;;2.92;2.08;;;;;;;17.63;58.22;94908.41;5049437;28;20569;-75
2023/10/14 07:13:09;;;;;;;2.55;1.60;;;;;;;17.89;57.14;94915.91;5061285;28;20305;-75
2023/10/14 07:15:41;;;;;;;3.67;2.00;;;;;;;18.18;56.91;94905.38;5050879;28;20204;-75
2023/10/14 07:18:09;;;;;;;0.40;0.40;;;;;;;18.41;55.74;94909.63;5048615;28;20236;-76
2023/10/14 07:20:36;;;;;;;0.70;0.70;;;;;;;18.65;55.45;94904.88;5050721;28;20203;-76
2023/10/14 07:23:03;;;;;;;1.17;0.63;;;;;;;18.22;55.63;94898.78;5051314;28;20281;-77
2023/10/14 07:25:34;;;;;;;0.32;0.32;;;;;;;18.04;57.13;94895.00;5064937;28;20207;-77
2023/10/14 07:28:06;;;;;;;0.40;0.40;;;;;;;17.92;57.36;94897.91;5071138;28;20215;-79
2023/10/14 07:30:37;;;;;;;0.22;0.22;;;;;;;17.72;57.65;94889.78;5071397;28;20618;-78
2023/10/14 07:33:06;;;;;;;0.50;0.50;;;;;;;18.00;57.74;94894.13;5070959;28;20215;-78
2023/10/14 07:35:36;;;;;;;0.50;0.45;;;;;;;17.83;57.49;94897.38;5056744;28;20211;-77
2023/10/14 07:38:03;;;;;;;0.30;0.30;;;;;;;18.31;55.13;94888.31;5062047;28;20210;-78
2023/10/14 07:40:31;;;;;;;0.47;0.47;;;;;;;18.55;55.21;94886.31;5070377;28;20548;-77
2023/10/14 07:43:05;;;;;;;0.40;0.35;;;;;;;18.57;54.94;94884.00;5061814;28;20235;-78
2023/10/14 07:45:33;;;;;;;1.42;0.28;;;;;;;18.15;55.89;94890.44;5068574;28;20206;-78
2023/10/14 07:48:08;;;;;;;0.98;0.80;;;;;;;18.22;55.74;94878.78;5070661;28;20545;-78
2023/10/14 07:50:36;;;;;;;0.30;0.30;;;;;;;18.57;54.53;94875.75;5069348;28;20210;-78
2023/10/14 07:53:08;;;;;;;0.60;0.57;;;;;;;18.76;54.13;94872.88;5070826;28;20277;-78
2023/10/14 07:55:39;;;;;;;0.93;0.70;;;;;;;19.08;53.79;94867.75;5070418;28;20230;-76
2023/10/14 07:58:10;;;;;;;0.73;0.40;;;;;;;18.88;53.87;94861.66;5070863;28;20203;-78
2023/10/14 08:00:41;;;;;;;0.68;0.68;;;;;;;18.87;54.55;94871.03;5070538;28;20238;-78
2023/10/14 08:03:14;;;;;;;2.65;1.70;;;;;;;18.69;54.40;94865.34;5069186;28;20205;-76
2023/10/14 08:05:42;;;;;;;2.65;0.68;;;;;;;18.77;54.58;94860.72;5068590;28;20225;-76
2023/10/14 08:08:11;;;;;;;0.20;0.20;;;;;;;18.75;54.20;94863.84;5069857;28;20203;-78
2023/10/14 08:10:41;;;;;;;1.38;0.93;;;;;;;18.86;53.48;94854.97;5070558;28;20211;-80
2023/10/14 08:13:09;;;;;;;0.28;0.25;;;;;;;19.06;53.00;94848.91;5069755;28;20261;-77
2023/10/14 08:15:36;;;;;;;1.48;1.15;;;;;;;18.95;53.68;94856.25;5069212;28;20245;-78
2023/10/14 08:18:04;;;;;;;1.95;1.42;;;;;;;19.20;52.53;94861.22;5069739;28;20607;-78
2023/10/14 08:20:34;;;;;;;1.20;1.10;;;;;;;19.20;53.09;94847.47;5069610;28;20284;-81
2023/10/14 08:23:02;;;;;;;3.22;1.92;;;;;;;19.22;52.20;94856.13;5070323;28;20295;-79
2023/10/14 08:25:30;;;;;;;0.73;0.63;;;;;;;19.40;51.78;94851.63;5070702;28;20215;-80
2023/10/14 08:28:00;;;;;;;1.85;1.10;;;;;;;19.52;51.58;94832.13;5071015;28;20203;-79
2023/10/14 08:30:32;;;;;;;0.55;0.55;;;;;;;19.61;51.42;94843.59;5054710;28;20250;-79
2023/10/14 08:32:59;;;;;;;0.45;0.45;;;;;;;19.63;51.29;94841.25;5049885;28;20634;-78
2023/10/14 08:35:27;;;;;;;1.00;0.75;;;;;;;19.92;51.13;94830.47;5047443;28;20700;-77
2023/10/14 08:37:59;;;;;;;2.50;1.55;;;;;;;20.16;50.79;94835.34;5049835;28;20210;-78
2023/10/14 08:40:29;;;;;;;3.30;1.73;;;;;;;20.31;49.99;94817.75;5051147;28;20219;-78
2023/10/14 08:43:02;;;;;;;2.72;1.70;;;;;;;20.51;50.11;94819.06;5053310;28;20238;-77
2023/10/14 08:45:29;;;;;;;1.95;1.25;;;;;;;20.48;49.21;94819.84;5049251;28;20199;-78
2023/10/14 08:47:59;;;;;;;2.67;1.73;;;;;;;20.50;49.17;94811.97;5052127;28;20299;-78
2023/10/14 08:50:29;;;;;;;1.85;1.40;;;;;;;20.60;49.30;94804.16;5053937;28;20214;-77
2023/10/14 08:53:00;;;;;;;2.28;1.55;;;;;;;20.70;48.56;94803.41;5053109;28;20219;-79
2023/10/14 08:55:28;;;;;;;2.53;1.70;;;;;;;20.83;47.84;94797.16;5051760;28;20253;-78
2023/10/14 08:58:01;;;;;;;2.63;1.70;;;;;;;21.01;47.89;94804.69;5053200;28;20203;-78
2023/10/14 09:00:30;;;;;;;2.22;1.90;;;;;;;21.15;47.07;94796.47;5052757;28;20196;-79
2023/10/14 09:02:58;;;;;;;3.47;1.95;;;;;;;20.75;47.72;94797.53;5054423;28;20727;-80
2023/10/14 09:05:26;;;;;;;3.28;1.48;;;;;;;20.97;47.67;94782.66;5047956;28;20234;-79
2023/10/14 09:07:58;;;;;;;2.92;1.55;;;;;;;21.09;47.56;94798.81;5053289;28;20636;-78
2023/10/14 09:10:26;;;;;;;1.50;1.40;;;;;;;21.24;47.08;94789.41;5052866;28;20272;-78
2023/10/14 09:13:04;;;;;;;2.15;1.30;;;;;;;21.38;47.21;94782.34;5055050;28;20234;-78
2023/10/14 09:15:33;;;;;;;2.70;1.88;;;;;;;21.71;46.69;94781.19;5053168;28;20214;-76
2023/10/14 09:18:01;;;;;;;2.28;1.35;;;;;;;21.84;45.72;94772.09;5060053;28;20338;-77
2023/10/14 09:20:30;;;;;;;2.58;1.67;;;;;;;21.88;46.62;94775.63;5072895;28;20215;-76
2023/10/14 09:23:17;;;;;;;2.40;1.63;;;;;;;21.89;45.78;94766.16;5073867;28;20292;-76
2023/10/14 09:25:49;;;;;;;2.03;1.45;;;;;;;21.69;46.19;94764.22;5051248;28;20207;-78
2023/10/14 09:28:20;;;;;;;2.30;1.40;;;;;;;21.74;45.58;94761.84;5052475;28;20686;-78
2023/10/14 09:30:50;;;;;;;2.13;1.42;;;;;;;21.61;45.45;94747.69;5053839;28;20626;-77
2023/10/14 09:33:20;;;;;;;3.50;1.90;;;;;;;21.74;45.86;94750.81;5065669;28;20230;-77
2023/10/14 09:35:51;;;;;;;3.03;2.03;;;;;;;21.73;45.54;94742.97;5067301;28;20199;-76
2023/10/14 09:38:23;;;;;;;3.25;1.65;;;;;;;21.85;45.36;94746.09;5053884;28;20204;-77
2023/10/14 09:40:55;;;;;;;2.05;1.40;;;;;;;22.18;45.27;94730.25;5053454;28;20228;-78
2023/10/14 09:43:26;;;;;;;3.17;2.63;;;;;;;22.31;44.03;94728.63;5066776;28;20610;-77
2023/10/14 09:45:56;;;;;;;2.67;1.70;;;;;;;21.97;45.47;94720.84;5053428;28;20203;-78
2023/10/14 09:48:27;;;;;;;3.30;1.45;;;;;;;21.87;45.47;94716.13;5053392;28;20281;-78
2023/10/14 09:50:56;;;;;;;1.58;1.27;;;;;;;21.69;45.86;94715.38;5053405;28;20294;-78
2023/10/14 09:53:28;;;;;;;2.95;1.52;;;;;;;21.94;44.94;94716.13;5053299;28;20281;-77
2023/10/14 09:55:57;;;;;;;2.35;1.45;;;;;;;22.18;44.73;94702.66;5053526;28;20223;-77
2023/10/14 09:58:26;;;;;;;3.72;1.60;;;;;;;22.61;44.36;94693.00;5070816;28;20222;-78
2023/10/14 10:00:52;;;;;;;1.98;1.50;;;;;;;22.87;43.68;94693.69;5073140;28;20207;-77
2023/10/14 10:03:23;;;;;;;1.27;1.08;;;;;;;23.09;42.91;94689.59;5067966;28;20227;-78
2023/10/14 10:06:25;;;;;;;1.60;1.10;;;;;;;22.90;42.81;94692.88;5052919;28;20203;-77
2023/10/14 10:09:20;;;;;;;3.13;1.27;;;;;;;22.85;42.98;94674.75;5053297;28;20200;-78
2023/10/14 10:11:50;;;;;;;4.20;1.20;;;;;;;22.90;43.12;94670.78;5039964;28;20214;-77
2023/10/14 10:14:20;;;;;;;3.42;1.67;;;;;;;23.08;42.78;94665.13;5054971;28;20237;-78
2023/10/14 10:16:52;;;;;;;3.03;1.52;;;;;;;22.97;42.45;94667.94;5072883;28;20210;-78
2023/10/14 10:19:21;;;;;;;2.20;1.30;;;;;;;23.12;42.73;94654.81;5069404;28;20212;-78
2023/10/14 10:22:17;;;;;;;2.97;1.80;;;;;;;23.42;42.75;94652.19;5052682;28;20207;-77
2023/10/14 10:24:47;;;;;;;2.42;1.67;;;;;;;23.29;41.70;94654.66;5055565;28;20657;-83
2023/10/14 10:27:19;;;;;;;2.53;1.20;;;;;;;23.28;43.27;94646.78;5055094;28;20567;-84
2023/10/14 10:29:49;;;;;;;1.33;1.15;;;;;;;23.34;41.61;94645.94;5054731;28;20231;-77
2023/10/14 10:32:19;;;;;;;3.00;1.50;;;;;;;23.34;41.83;94640.41;5055995;28;20671;-78
2023/10/14 10:35:17;;;;;;;2.38;1.30;;;;;;;23.43;41.20;94630.84;5072504;28;20230;-77
2023/10/14 10:37:51;;;;;;;2.20;1.38;;;;;;;23.65;41.21;94623.91;4999415;28;20582;-78
2023/10/14 10:40:25;;;;;;;2.05;1.30;;;;;;;23.70;41.51;94617.94;5047440;28;20258;-78
2023/10/14 10:42:55;;;;;;;2.30;1.40;;;;;;;23.93;41.59;94614.50;5072948;28;20207;-77
2023/10/14 10:45:23;;;;;;;1.90;1.73;;;;;;;23.86;40.16;94604.34;5072230;28;20219;-78
2023/10/14 10:47:56;;;;;;;1.05;1.00;;;;;;;23.85;39.98;94597.22;5061783;28;20211;-77
2023/10/14 10:50:26;;;;;;;2.65;1.45;;;;;;;23.84;40.22;94590.13;5052090;28;20240;-77
2023/10/14 10:53:10;;;;;;;1.33;1.05;;;;;;;23.75;40.64;94589.84;5052318;28;20641;-77
2023/10/14 10:55:41;;;;;;;1.67;0.90;;;;;;;23.64;40.61;94589.94;5052573;28;20567;-78
2023/10/14 10:58:11;;;;;;;1.88;1.30;;;;;;;23.69;39.74;94581.19;5052749;28;20606;-78
2023/10/14 11:00:38;;;;;;;1.85;1.40;;;;;;;23.74;39.65;94577.22;5061511;28;20221;-77
2023/10/14 11:03:06;;;;;;;2.45;1.25;;;;;;;24.02;39.32;94574.09;5055910;28;20235;-77
2023/10/14 11:05:35;;;;;;;2.78;1.20;;;;;;;24.13;38.83;94573.16;5051960;28;20291;-77
2023/10/14 11:08:04;;;;;;;2.10;1.02;;;;;;;24.13;38.57;94567.63;5052439;28;20551;-86
2023/10/14 11:10:33;;;;;;;1.75;1.30;;;;;;;23.93;38.42;94565.50;5052399;28;20215;-82
2023/10/14 11:13:02;;;;;;;5.85;3.13;;;;;;;23.98;39.04;94559.50;5054019;28;20280;-84
2023/10/14 11:15:31;;;;;;;1.52;1.17;;;;;;;23.94;38.60;94556.00;5051772;28;20707;-77
2023/10/14 11:18:00;;;;;;;1.52;1.08;;;;;;;23.85;38.54;94549.41;5051613;28;20262;-77
2023/10/14 11:20:29;;;;;;;2.60;1.50;;;;;;;24.25;39.42;94553.25;5051770;28;20211;-78
2023/10/14 11:22:56;;;;;;;1.17;1.08;;;;;;;24.58;38.34;94548.81;5051882;28;20579;-78
2023/10/14 11:25:23;;;;;;;3.28;1.35;;;;;;;24.91;38.31;94541.53;5051381;28;20215;-78
2023/10/14 11:27:50;;;;;;;0.98;0.85;;;;;;;24.66;38.32;94537.19;5051692;28;20215;-78
2023/10/14 11:30:19;;;;;;;1.50;1.27;;;;;;;24.70;38.52;94535.16;5051206;28;20203;-78
2023/10/14 11:32:49;;;;;;;1.95;1.30;;;;;;;24.58;38.37;94526.66;5052109;28;20262;-78
2023/10/14 11:35:18;;;;;;;2.05;1.20;;;;;;;24.56;39.01;94524.31;5050608;28;20215;-78
2023/10/14 11:37:50;;;;;;;1.60;1.00;;;;;;;24.69;38.34;94525.28;5051361;28;20218;-78
2023/10/14 11:40:17;;;;;;;1.25;1.00;;;;;;;24.82;37.23;94524.69;5050162;28;20692;-79
2023/10/14 11:42:44;;;;;;;1.52;1.10;;;;;;;24.77;37.42;94518.41;5051822;28;20549;-78
2023/10/14 11:45:17;;;;;;;0.65;0.65;;;;;;;24.61;37.48;94514.72;5051103;28;20211;-78
2023/10/14 11:47:48;;;;;;;2.47;1.20;;;;;;;24.62;37.92;94522.59;5050769;28;20214;-79
2023/10/14 11:50:19;;;;;;;1.88;1.65;;;;;;;24.67;37.84;94508.28;5051521;28;20200;-77
2023/10/14 11:52:48;;;;;;;1.25;1.13;;;;;;;24.51;37.83;94505.38;5051661;28;20210;-78
2023/10/14 11:55:16;;;;;;;2.38;1.48;;;;;;;24.69;38.26;94505.88;5050678;28;20227;-79
2023/10/14 11:57:43;;;;;;;1.25;1.05;;;;;;;24.75;37.36;94504.19;5051134;28;20207;-78
2023/10/14 12:00:12;;;;;;;1.75;1.20;;;;;;;24.90;37.14;94488.09;5049826;28;20306;-77
2023/10/14 12:02:40;;;;;;;3.90;2.35;;;;;;;25.13;36.95;94490.09;5050072;28;20211;-77
2023/10/14 12:05:16;;;;;;;1.63;1.25;;;;;;;25.04;37.84;94481.53;5051054;28;20615;-77
2023/10/14 12:07:44;;;;;;;1.13;0.88;;;;;;;24.93;36.99;94480.94;5047908;28;20202;-76